| time (UTC) | temp F | wind direction | speed knots | gust knots | rain 1hr in | rain 24hr in | rain mn in | humidity % | barometer mb |
| 20260506134637 | 68 | 131 | 0.9 | 0.9 | 0.00 | 0.00 | 0.00 | 89 | 1018.5 |
| 20260506134133 | 67 | 218 | 0.9 | 0.9 | 0.00 | 0.00 | 0.00 | 90 | 1018.2 |
| 20260506133631 | 67 | 163 | 1.7 | 1.7 | 0.00 | 0.00 | 0.00 | 90 | 1018.2 |
| 20260506133128 | 66 | 157 | 2.6 | 2.6 | 0.00 | 0.00 | 0.00 | 90 | 1018.5 |
| 20260506132625 | 66 | 163 | 2.6 | 2.6 | 0.00 | 0.00 | 0.00 | 90 | 1018.1 |
| 20260506132122 | 66 | 153 | 0.9 | 0.9 | 0.00 | 0.00 | 0.00 | 90 | 1018.4 |
| 20260506131619 | 66 | 248 | 0.0 | 0.0 | 0.00 | 0.00 | 0.00 | 91 | 1018.1 |
| 20260506131115 | 65 | 242 | 0.9 | 1.7 | 0.00 | 0.00 | 0.00 | 91 | 1018.0 |
| 20260506130613 | 65 | 164 | 0.9 | 0.9 | 0.00 | 0.00 | 0.00 | 92 | 1018.0 |
| 20260506130110 | 65 | 217 | 0.0 | 0.0 | 0.00 | 0.00 | 0.00 | 92 | 1018.1 |
| 20260506125608 | 64 | 190 | 1.7 | 2.6 | 0.00 | 0.00 | 0.00 | 92 | 1017.9 |
| 20260506125106 | 64 | 128 | 0.9 | 1.7 | 0.00 | 0.00 | 0.00 | 93 | 1018.1 |
| 20260506124603 | 64 | 153 | 1.7 | 1.7 | 0.00 | 0.00 | 0.00 | 93 | 1018.2 |
| 20260506124101 | 63 | 190 | 0.0 | 0.0 | 0.00 | 0.00 | 0.00 | 93 | 1018.0 |
| 20260506123558 | 63 | 166 | 0.0 | 0.9 | 0.00 | 0.00 | 0.00 | 93 | 1018.0 |
| 20260506123057 | 63 | 192 | 1.7 | 1.7 | 0.00 | 0.00 | 0.00 | 93 | 1018.1 |
| 20260506122051 | 62 | 190 | 0.0 | 0.0 | 0.00 | 0.00 | 0.00 | 94 | 1017.8 |
| 20260506121548 | 62 | 149 | 0.9 | 0.9 | 0.00 | 0.00 | 0.00 | 94 | 1018.0 |
| 20260506121044 | 62 | 132 | 1.7 | 2.6 | 0.00 | 0.00 | 0.00 | 94 | 1017.7 |
| 20260506120543 | 61 | 209 | 0.0 | 0.9 | 0.00 | 0.00 | 0.00 | 95 | 1017.7 |
| 20260506120039 | 61 | 147 | 0.9 | 1.7 | 0.00 | 0.00 | 0.00 | 94 | 1017.6 |
| 20260506115537 | 61 | 152 | 1.7 | 1.7 | 0.00 | 0.00 | 0.00 | 94 | 1017.5 |
| 20260506115036 | 60 | 207 | 0.0 | 0.0 | 0.00 | 0.00 | 0.00 | 95 | 1017.3 |
| 20260506114533 | 60 | 144 | 0.9 | 0.9 | 0.00 | 0.00 | 0.00 | 95 | 1017.3 |
| 20260506114031 | 60 | 107 | 1.7 | 2.6 | 0.00 | 0.00 | 0.00 | 95 | 1017.1 |
| 20260506113528 | 60 | 167 | 1.7 | 1.7 | 0.00 | 0.00 | 0.00 | 95 | 1017.1 |
| 20260506113026 | 60 | 130 | 0.9 | 0.9 | 0.00 | 0.00 | 0.00 | 95 | 1017.2 |
| 20260506112522 | 60 | 95 | 1.7 | 1.7 | 0.00 | 0.00 | 0.00 | 95 | 1017.2 |
| 20260506112019 | 60 | 128 | 0.9 | 1.7 | 0.00 | 0.00 | 0.00 | 95 | 1017.2 |
| 20260506111518 | 60 | 165 | 0.9 | 0.9 | 0.00 | 0.00 | 0.00 | 95 | 1017.1 |
| 20260506111014 | 60 | 142 | 1.7 | 1.7 | 0.00 | 0.00 | 0.00 | 95 | 1017.1 |
| 20260506110512 | 60 | 160 | 1.7 | 1.7 | 0.00 | 0.00 | 0.00 | 95 | 1016.7 |
| 20260506110009 | 60 | 108 | 2.6 | 2.6 | 0.00 | 0.00 | 0.00 | 95 | 1016.6 |
| 20260506105505 | 60 | 136 | 0.9 | 0.9 | 0.00 | 0.00 | 0.00 | 96 | 1016.6 |
| 20260506105002 | 60 | 126 | 0.9 | 1.7 | 0.00 | 0.00 | 0.00 | 96 | 1016.4 |
| 20260506104500 | 60 | 179 | 0.9 | 0.9 | 0.00 | 0.00 | 0.00 | 96 | 1016.2 |
| 20260506103958 | 60 | 162 | 1.7 | 1.7 | 0.00 | 0.00 | 0.00 | 96 | 1016.1 |
| 20260506103455 | 59 | 202 | 0.0 | 0.0 | 0.00 | 0.00 | 0.00 | 96 | 1016.2 |
| 20260506102952 | 59 | 214 | 0.0 | 0.9 | 0.00 | 0.00 | 0.00 | 96 | 1016.1 |
| 20260506102450 | 59 | 192 | 0.0 | 0.9 | 0.00 | 0.00 | 0.00 | 96 | 1016.0 |
| 20260506101947 | 59 | 177 | 0.0 | 0.9 | 0.00 | 0.00 | 0.00 | 96 | 1016.1 |
| 20260506101443 | 59 | 189 | 0.0 | 0.0 | 0.00 | 0.00 | 0.00 | 96 | 1016.1 |
| 20260506100941 | 59 | 141 | 0.0 | 0.9 | 0.00 | 0.00 | 0.00 | 96 | 1016.1 |
| 20260506100439 | 59 | 213 | 0.0 | 0.0 | 0.00 | 0.00 | 0.00 | 95 | 1016.4 |
| 20260506095937 | 59 | 200 | 0.0 | 0.0 | 0.00 | 0.00 | 0.00 | 95 | 1016.2 |
| 20260506095435 | 59 | 189 | 0.0 | 0.0 | 0.00 | 0.00 | 0.00 | 95 | 1016.1 |
| 20260506094931 | 59 | 188 | 0.0 | 0.0 | 0.00 | 0.00 | 0.00 | 95 | 1016.3 |
| 20260506094430 | 59 | 173 | 0.0 | 0.0 | 0.00 | 0.00 | 0.00 | 95 | 1016.5 |
| 20260506093927 | 59 | 203 | 0.0 | 0.0 | 0.00 | 0.00 | 0.00 | 95 | 1016.3 |
| 20260506093425 | 59 | 179 | 0.0 | 0.0 | 0.00 | 0.00 | 0.00 | 95 | 1016.4 |
| 20260506092922 | 59 | 202 | 0.0 | 0.0 | 0.00 | 0.00 | 0.00 | 95 | 1016.5 |
| 20260506092420 | 59 | 208 | 0.0 | 0.0 | 0.00 | 0.00 | 0.00 | 95 | 1016.0 |
| 20260506091916 | 59 | 189 | 0.0 | 0.0 | 0.00 | 0.00 | 0.00 | 95 | 1016.2 |
| 20260506091414 | 59 | 155 | 0.0 | 0.0 | 0.00 | 0.00 | 0.00 | 95 | 1016.2 |
| 20260506090911 | 60 | 197 | 0.0 | 0.0 | 0.00 | 0.00 | 0.00 | 95 | 1016.3 |
| 20260506090409 | 60 | 197 | 0.0 | 0.0 | 0.00 | 0.00 | 0.00 | 95 | 1016.4 |
| 20260506085905 | 60 | 221 | 0.0 | 0.0 | 0.00 | 0.00 | 0.00 | 94 | 1016.4 |
| 20260506085402 | 60 | 221 | 0.0 | 0.0 | 0.00 | 0.00 | 0.00 | 94 | 1016.5 |
| 20260506084858 | 60 | 210 | 0.0 | 0.0 | 0.00 | 0.00 | 0.00 | 94 | 1016.6 |
| 20260506084355 | 60 | 208 | 0.0 | 0.0 | 0.00 | 0.00 | 0.00 | 93 | 1016.7 |
| 20260506083852 | 60 | 194 | 0.0 | 0.0 | 0.00 | 0.00 | 0.00 | 93 | 1016.7 |
| 20260506083349 | 60 | 203 | 0.0 | 0.0 | 0.00 | 0.00 | 0.00 | 93 | 1016.7 |
| 20260506082846 | 60 | 229 | 0.0 | 0.0 | 0.00 | 0.00 | 0.00 | 93 | 1016.9 |
| 20260506082343 | 60 | 212 | 0.0 | 0.0 | 0.00 | 0.00 | 0.00 | 93 | 1016.8 |
| 20260506081839 | 60 | 211 | 0.0 | 0.0 | 0.00 | 0.00 | 0.00 | 92 | 1016.8 |
| 20260506081338 | 60 | 210 | 0.0 | 0.0 | 0.00 | 0.00 | 0.00 | 92 | 1016.9 |
| 20260506080835 | 60 | 211 | 0.0 | 0.0 | 0.00 | 0.00 | 0.00 | 92 | 1016.8 |
| 20260506080331 | 61 | 209 | 0.0 | 0.0 | 0.00 | 0.00 | 0.00 | 91 | 1016.9 |
| 20260506073315 | 61 | 221 | 0.0 | 0.0 | 0.00 | 0.00 | 0.00 | 89 | 1016.3 |
| 20260506072812 | 61 | 190 | 0.0 | 0.0 | 0.00 | 0.00 | 0.00 | 89 | 1016.3 |
| 20260506072310 | 61 | 209 | 0.0 | 0.0 | 0.00 | 0.00 | 0.00 | 89 | 1016.1 |
| 20260506071807 | 61 | 208 | 0.0 | 0.0 | 0.00 | 0.00 | 0.00 | 89 | 1016.4 |
| 20260506071305 | 61 | 199 | 0.0 | 0.0 | 0.00 | 0.00 | 0.00 | 88 | 1016.3 |
| 20260506070802 | 62 | 191 | 0.0 | 0.0 | 0.00 | 0.00 | 0.00 | 88 | 1016.5 |
| 20260506070259 | 62 | 233 | 0.0 | 0.0 | 0.00 | 0.00 | 0.00 | 87 | 1016.5 |
| 20260506062236 | 64 | 121 | 1.7 | 1.7 | 0.00 | 0.00 | 0.00 | 83 | 1016.1 |
| 20260506061732 | 64 | 258 | 0.0 | 0.0 | 0.00 | 0.00 | 0.00 | 82 | 1016.2 |
| 20260506061229 | 63 | 237 | 0.0 | 0.0 | 0.00 | 0.00 | 0.00 | 83 | 1016.0 |
| 20260506060728 | 63 | 224 | 0.0 | 0.0 | 0.00 | 0.00 | 0.00 | 83 | 1016.1 |
| 20260506060224 | 62 | 247 | 0.0 | 0.0 | 0.00 | 0.00 | 0.00 | 84 | 1016.1 |
| 20260506051156 | 62 | 235 | 0.0 | 0.0 | 0.00 | 0.00 | 0.00 | 80 | 1016.7 |
| 20260506050655 | 62 | 235 | 0.0 | 0.0 | 0.00 | 0.00 | 0.00 | 80 | 1016.6 |
| 20260506050152 | 63 | 200 | 0.0 | 0.0 | 0.00 | 0.00 | 0.00 | 79 | 1016.4 |
| 20260506044643 | 62 | 266 | 0.0 | 0.0 | 0.00 | 0.00 | 0.00 | 82 | 1016.5 |
| 20260506044139 | 62 | 200 | 0.9 | 0.9 | 0.00 | 0.00 | 0.00 | 83 | 1016.4 |
| 20260506043636 | 62 | 206 | 0.0 | 0.0 | 0.00 | 0.00 | 0.00 | 85 | 1016.6 |
| 20260506043134 | 62 | 207 | 0.0 | 0.0 | 0.00 | 0.00 | 0.00 | 85 | 1016.7 |
| 20260506042633 | 62 | 167 | 0.0 | 0.0 | 0.00 | 0.00 | 0.00 | 85 | 1016.7 |
| 20260506042131 | 62 | 215 | 0.0 | 0.0 | 0.00 | 0.00 | 0.00 | 85 | 1016.9 |
| 20260506041629 | 62 | 215 | 0.0 | 0.0 | 0.00 | 0.00 | 0.00 | 85 | 1016.8 |
| 20260506041125 | 62 | 215 | 0.0 | 0.0 | 0.00 | 0.00 | 0.00 | 84 | 1017.0 |
| 20260506040120 | 62 | 230 | 0.0 | 0.0 | 0.00 | 0.00 | 0.00 | 83 | 1017.0 |
| 20260506035617 | 62 | 230 | 0.0 | 0.0 | 0.00 | 0.00 | 0.00 | 81 | 1016.5 |
| 20260506035113 | 62 | 228 | 0.0 | 0.0 | 0.00 | 0.00 | 0.00 | 80 | 1016.5 |
| 20260506034611 | 62 | 203 | 0.0 | 0.0 | 0.00 | 0.00 | 0.00 | 79 | 1016.4 |
| 20260506034108 | 62 | 203 | 0.0 | 0.0 | 0.00 | 0.00 | 0.00 | 79 | 1016.4 |
| 20260506033605 | 63 | 161 | 0.0 | 0.0 | 0.00 | 0.00 | 0.00 | 79 | 1016.5 |
| 20260506033102 | 62 | 199 | 0.0 | 0.0 | 0.00 | 0.00 | 0.00 | 80 | 1016.3 |
| 20260506032559 | 62 | 211 | 0.0 | 0.0 | 0.00 | 0.00 | 0.00 | 79 | 1016.7 |
| 20260506032056 | 63 | 203 | 0.0 | 0.0 | 0.00 | 0.00 | 0.00 | 77 | 1016.5 |
| 20260506031553 | 63 | 202 | 0.0 | 0.0 | 0.00 | 0.00 | 0.00 | 77 | 1016.5 |
| 20260506031050 | 63 | 175 | 0.0 | 0.0 | 0.00 | 0.00 | 0.00 | 76 | 1016.6 |
| 20260506030548 | 64 | 168 | 0.0 | 0.0 | 0.00 | 0.00 | 0.00 | 75 | 1016.8 |
| 20260506030045 | 64 | 190 | 0.0 | 0.0 | 0.00 | 0.00 | 0.00 | 74 | 1016.8 |
| 20260506025542 | 64 | 171 | 0.0 | 0.0 | 0.00 | 0.00 | 0.00 | 74 | 1016.9 |
| 20260506025038 | 64 | 211 | 0.0 | 0.0 | 0.00 | 0.00 | 0.00 | 74 | 1017.2 |
| 20260506024535 | 64 | 211 | 0.0 | 0.0 | 0.00 | 0.00 | 0.00 | 74 | 1016.9 |
| 20260506024032 | 65 | 211 | 0.0 | 0.0 | 0.00 | 0.00 | 0.00 | 72 | 1016.9 |
| 20260506023528 | 66 | 207 | 0.0 | 0.0 | 0.00 | 0.00 | 0.00 | 71 | 1016.7 |
| 20260506023026 | 65 | 222 | 0.0 | 0.0 | 0.00 | 0.00 | 0.00 | 70 | 1016.7 |
| 20260506022523 | 66 | 222 | 0.0 | 0.0 | 0.00 | 0.00 | 0.00 | 70 | 1016.8 |
| 20260506022020 | 66 | 218 | 0.0 | 0.0 | 0.00 | 0.00 | 0.00 | 69 | 1016.7 |
| 20260506021518 | 67 | 198 | 0.0 | 0.0 | 0.00 | 0.00 | 0.00 | 68 | 1016.6 |
| 20260506021015 | 67 | 187 | 0.0 | 0.0 | 0.00 | 0.00 | 0.00 | 67 | 1016.4 |
| 20260506020512 | 67 | 183 | 0.0 | 0.0 | 0.00 | 0.00 | 0.00 | 68 | 1016.4 |
| 20260506020010 | 67 | 198 | 0.0 | 0.0 | 0.00 | 0.00 | 0.00 | 68 | 1016.3 |
| 20260506015507 | 68 | 201 | 0.0 | 0.0 | 0.00 | 0.00 | 0.00 | 66 | 1016.7 |
| 20260506015003 | 68 | 198 | 0.0 | 0.0 | 0.00 | 0.00 | 0.00 | 66 | 1016.6 |
| 20260506014501 | 69 | 207 | 0.0 | 0.0 | 0.00 | 0.00 | 0.00 | 64 | 1016.5 |
| 20260506013957 | 69 | 198 | 0.0 | 0.0 | 0.00 | 0.00 | 0.00 | 62 | 1016.4 |
| 20260506013455 | 69 | 198 | 0.0 | 0.0 | 0.00 | 0.00 | 0.00 | 61 | 1016.5 |
| 20260506012951 | 70 | 193 | 0.0 | 0.0 | 0.00 | 0.00 | 0.00 | 60 | 1016.6 |
| 20260506012447 | 71 | 189 | 0.0 | 0.0 | 0.00 | 0.00 | 0.00 | 57 | 1016.3 |
| 20260506011944 | 71 | 185 | 0.0 | 0.0 | 0.00 | 0.00 | 0.00 | 56 | 1016.5 |
| 20260506011442 | 71 | 184 | 0.0 | 0.0 | 0.00 | 0.00 | 0.00 | 55 | 1016.7 |
| 20260506010938 | 72 | 219 | 0.0 | 0.0 | 0.00 | 0.00 | 0.00 | 54 | 1016.7 |
| 20260506010438 | 72 | 236 | 0.0 | 0.0 | 0.00 | 0.00 | 0.00 | 53 | 1016.5 |
| 20260506005933 | 73 | 212 | 0.0 | 0.0 | 0.00 | 0.00 | 0.00 | 52 | 1016.6 |
| 20260506005431 | 74 | 221 | 0.0 | 0.9 | 0.00 | 0.00 | 0.00 | 50 | 1016.6 |
| 20260506004926 | 74 | 234 | 1.7 | 1.7 | 0.00 | 0.00 | 0.00 | 49 | 1016.5 |
| 20260506004425 | 74 | 260 | 0.9 | 0.9 | 0.00 | 0.00 | 0.00 | 49 | 1016.6 |
| 20260506003920 | 75 | 197 | 0.9 | 1.7 | 0.00 | 0.00 | 0.00 | 48 | 1016.2 |
| 20260506003417 | 75 | 266 | 0.9 | 1.7 | 0.00 | 0.00 | 0.00 | 48 | 1016.2 |
| 20260506002913 | 75 | 179 | 0.0 | 0.0 | 0.00 | 0.00 | 0.00 | 47 | 1016.3 |
| 20260506002409 | 76 | 240 | 0.9 | 1.7 | 0.00 | 0.00 | 0.00 | 46 | 1016.2 |
| 20260506001905 | 76 | 236 | 1.7 | 2.6 | 0.00 | 0.00 | 0.00 | 45 | 1016.1 |
| 20260506001402 | 77 | 228 | 0.9 | 1.7 | 0.00 | 0.00 | 0.00 | 45 | 1016.1 |
| 20260506000859 | 77 | 241 | 0.9 | 0.9 | 0.00 | 0.00 | 0.00 | 44 | 1015.9 |
| 20260506000357 | 77 | 238 | 1.7 | 1.7 | 0.00 | 0.00 | 0.00 | 43 | 1015.9 |
| 20260505235853 | 77 | 237 | 1.7 | 1.7 | 0.00 | 0.00 | 0.00 | 42 | 1016.1 |
| 20260505235351 | 78 | 248 | 2.6 | 5.2 | 0.00 | 0.00 | 0.00 | 41 | 1015.9 |
| 20260505234848 | 78 | 240 | 0.9 | 0.9 | 0.00 | 0.00 | 0.00 | 41 | 1015.6 |
| 20260505234346 | 78 | 260 | 0.0 | 0.0 | 0.00 | 0.00 | 0.00 | 41 | 1015.9 |
| 20260505233842 | 79 | 245 | 0.0 | 0.0 | 0.00 | 0.00 | 0.00 | 39 | 1015.8 |
| 20260505233340 | 79 | 220 | 1.7 | 2.6 | 0.00 | 0.00 | 0.00 | 39 | 1015.8 |
| 20260505232837 | 80 | 259 | 2.6 | 3.5 | 0.00 | 0.00 | 0.00 | 39 | 1015.7 |
| 20260505232335 | 80 | 258 | 0.0 | 0.9 | 0.00 | 0.00 | 0.00 | 39 | 1015.8 |
| 20260505231831 | 80 | 135 | 0.9 | 1.7 | 0.00 | 0.00 | 0.00 | 39 | 1015.6 |
| 20260505231329 | 81 | 261 | 4.3 | 7.0 | 0.00 | 0.00 | 0.00 | 38 | 1015.5 |
| 20260505230827 | 82 | 253 | 1.7 | 2.6 | 0.00 | 0.00 | 0.00 | 39 | 1015.4 |
| 20260505230324 | 82 | 237 | 0.9 | 1.7 | 0.00 | 0.00 | 0.00 | 40 | 1015.4 |
| 20260505225821 | 81 | 259 | 0.9 | 1.7 | 0.00 | 0.00 | 0.00 | 40 | 1015.4 |
| 20260505225318 | 81 | 337 | 1.7 | 2.6 | 0.00 | 0.00 | 0.00 | 40 | 1015.5 |
| 20260505224813 | 81 | 227 | 0.9 | 1.7 | 0.00 | 0.00 | 0.00 | 39 | 1015.6 |
| 20260505224311 | 81 | 118 | 3.5 | 5.2 | 0.00 | 0.00 | 0.00 | 38 | 1015.5 |
| 20260505223808 | 82 | 242 | 0.9 | 0.9 | 0.00 | 0.00 | 0.00 | 38 | 1015.6 |
| 20260505223305 | 82 | 143 | 0.9 | 0.9 | 0.00 | 0.00 | 0.00 | 38 | 1015.3 |
| 20260505222801 | 82 | 165 | 0.9 | 1.7 | 0.00 | 0.00 | 0.00 | 38 | 1015.5 |
| 20260505222257 | 83 | 219 | 1.7 | 2.6 | 0.00 | 0.00 | 0.00 | 39 | 1015.5 |
| 20260505221754 | 82 | 107 | 2.6 | 2.6 | 0.00 | 0.00 | 0.00 | 41 | 1015.6 |
| 20260505221251 | 82 | 320 | 0.9 | 0.9 | 0.00 | 0.00 | 0.00 | 41 | 1015.7 |
| 20260505220748 | 82 | 172 | 3.5 | 5.2 | 0.00 | 0.00 | 0.00 | 42 | 1015.7 |
| 20260505220245 | 82 | 106 | 2.6 | 3.5 | 0.00 | 0.00 | 0.00 | 41 | 1015.8 |
| 20260505215743 | 83 | 183 | 0.9 | 1.7 | 0.00 | 0.00 | 0.00 | 41 | 1015.9 |
| 20260505215241 | 83 | 264 | 1.7 | 1.7 | 0.00 | 0.00 | 0.00 | 41 | 1015.7 |
| 20260505214738 | 83 | 172 | 1.7 | 3.5 | 0.00 | 0.00 | 0.00 | 42 | 1015.8 |
| 20260505214235 | 83 | 142 | 1.7 | 2.6 | 0.00 | 0.00 | 0.00 | 40 | 1015.8 |
| 20260505213733 | 82 | 152 | 2.6 | 3.5 | 0.00 | 0.00 | 0.00 | 41 | 1016.0 |
| 20260505213230 | 83 | 148 | 3.5 | 5.2 | 0.00 | 0.00 | 0.00 | 40 | 1015.9 |
| 20260505212726 | 83 | 157 | 2.6 | 2.6 | 0.00 | 0.00 | 0.00 | 42 | 1015.7 |
| 20260505212223 | 83 | 186 | 2.6 | 3.5 | 0.00 | 0.00 | 0.00 | 43 | 1015.9 |
| 20260505211720 | 82 | 157 | 3.5 | 7.0 | 0.00 | 0.00 | 0.00 | 42 | 1015.9 |
| 20260505211218 | 82 | 175 | 5.2 | 7.0 | 0.00 | 0.00 | 0.00 | 39 | 1016.0 |
| 20260505210714 | 83 | 164 | 0.9 | 1.7 | 0.00 | 0.00 | 0.00 | 40 | 1015.8 |
| 20260505210211 | 84 | 109 | 1.7 | 2.6 | 0.00 | 0.00 | 0.00 | 41 | 1016.0 |
| 20260505205708 | 83 | 300 | 2.6 | 2.6 | 0.00 | 0.00 | 0.00 | 40 | 1015.8 |
| 20260505205206 | 84 | 171 | 1.7 | 2.6 | 0.00 | 0.00 | 0.00 | 41 | 1015.8 |
| 20260505204702 | 83 | 337 | 0.9 | 0.9 | 0.00 | 0.00 | 0.00 | 42 | 1016.0 |
| 20260505204200 | 83 | 44 | 1.7 | 2.6 | 0.00 | 0.00 | 0.00 | 42 | 1016.1 |
| 20260505203657 | 83 | 109 | 1.7 | 1.7 | 0.00 | 0.00 | 0.00 | 41 | 1016.0 |
| 20260505203154 | 83 | 223 | 3.5 | 5.2 | 0.00 | 0.00 | 0.00 | 42 | 1016.1 |
| 20260505202649 | 82 | 194 | 1.7 | 3.5 | 0.00 | 0.00 | 0.00 | 42 | 1016.1 |
| 20260505202146 | 83 | 230 | 3.5 | 3.5 | 0.00 | 0.00 | 0.00 | 45 | 1016.4 |
| 20260505201643 | 82 | 253 | 3.5 | 6.1 | 0.00 | 0.00 | 0.00 | 43 | 1016.3 |
| 20260505201141 | 82 | 110 | 1.7 | 1.7 | 0.00 | 0.00 | 0.00 | 44 | 1016.6 |
| 20260505200638 | 82 | 128 | 6.1 | 8.7 | 0.00 | 0.00 | 0.00 | 43 | 1016.4 |
| 20260505200135 | 84 | 156 | 2.6 | 3.5 | 0.00 | 0.00 | 0.00 | 43 | 1016.5 |
| 20260505195632 | 82 | 110 | 5.2 | 7.0 | 0.00 | 0.00 | 0.00 | 44 | 1016.6 |
| 20260505195129 | 83 | 81 | 3.5 | 3.5 | 0.00 | 0.00 | 0.00 | 42 | 1016.6 |
| 20260505194626 | 82 | 165 | 1.7 | 2.6 | 0.00 | 0.00 | 0.00 | 45 | 1016.6 |
| 20260505194121 | 82 | 152 | 3.5 | 3.5 | 0.00 | 0.00 | 0.00 | 44 | 1016.7 |
| 20260505193619 | 82 | 201 | 4.3 | 6.1 | 0.00 | 0.00 | 0.00 | 44 | 1016.8 |
| 20260505193116 | 82 | 154 | 2.6 | 2.6 | 0.00 | 0.00 | 0.00 | 45 | 1016.8 |
| 20260505192614 | 81 | 204 | 5.2 | 7.0 | 0.00 | 0.00 | 0.00 | 43 | 1016.6 |
| 20260505192111 | 81 | 139 | 4.3 | 5.2 | 0.00 | 0.00 | 0.00 | 46 | 1016.9 |
| 20260505191610 | 82 | 174 | 0.0 | 0.9 | 0.00 | 0.00 | 0.00 | 47 | 1016.9 |
| 20260505191107 | 81 | 170 | 1.7 | 1.7 | 0.00 | 0.00 | 0.00 | 46 | 1017.1 |
| 20260505190602 | 83 | 169 | 2.6 | 3.5 | 0.00 | 0.00 | 0.00 | 44 | 1017.3 |
| 20260505190058 | 82 | 258 | 1.7 | 1.7 | 0.00 | 0.00 | 0.00 | 46 | 1017.2 |
| 20260505185555 | 83 | 193 | 3.5 | 3.5 | 0.00 | 0.00 | 0.00 | 45 | 1017.3 |
| 20260505185051 | 81 | 263 | 2.6 | 3.5 | 0.00 | 0.00 | 0.00 | 43 | 1017.4 |
| 20260505184548 | 82 | 159 | 4.3 | 5.2 | 0.00 | 0.00 | 0.00 | 44 | 1017.8 |
| 20260505184045 | 81 | 124 | 0.9 | 1.7 | 0.00 | 0.00 | 0.00 | 48 | 1017.9 |
| 20260505183541 | 80 | 65 | 1.7 | 1.7 | 0.00 | 0.00 | 0.00 | 48 | 1018.0 |
| 20260505183039 | 81 | 131 | 5.2 | 7.0 | 0.00 | 0.00 | 0.00 | 48 | 1017.8 |
| 20260505182535 | 80 | 160 | 3.5 | 3.5 | 0.00 | 0.00 | 0.00 | 46 | 1018.0 |
| 20260505182032 | 79 | 201 | 1.7 | 1.7 | 0.00 | 0.00 | 0.00 | 48 | 1018.0 |
| 20260505181528 | 81 | 114 | 4.3 | 6.1 | 0.00 | 0.00 | 0.00 | 43 | 1018.0 |
| 20260505181026 | 80 | 310 | 1.7 | 2.6 | 0.00 | 0.00 | 0.00 | 44 | 1017.9 |
| 20260505180521 | 81 | 132 | 3.5 | 3.5 | 0.00 | 0.00 | 0.00 | 45 | 1018.2 |
| 20260505180020 | 80 | 161 | 1.7 | 1.7 | 0.00 | 0.00 | 0.00 | 46 | 1018.0 |
| 20260505175514 | 81 | 180 | 1.7 | 2.6 | 0.00 | 0.00 | 0.00 | 47 | 1018.0 |
| 20260505175012 | 81 | 228 | 3.5 | 5.2 | 0.00 | 0.00 | 0.00 | 44 | 1018.1 |
| 20260505174509 | 81 | 242 | 4.3 | 6.1 | 0.00 | 0.00 | 0.00 | 44 | 1018.1 |
| 20260505174004 | 81 | 171 | 2.6 | 5.2 | 0.00 | 0.00 | 0.00 | 45 | 1018.3 |
| 20260505173501 | 81 | 93 | 4.3 | 6.1 | 0.00 | 0.00 | 0.00 | 46 | 1018.1 |
| 20260505172958 | 80 | 220 | 2.6 | 5.2 | 0.00 | 0.00 | 0.00 | 46 | 1018.4 |
| 20260505172457 | 80 | 168 | 0.9 | 1.7 | 0.00 | 0.00 | 0.00 | 47 | 1018.4 |
| 20260505171956 | 80 | 121 | 2.6 | 2.6 | 0.00 | 0.00 | 0.00 | 49 | 1018.4 |
| 20260505171453 | 80 | 115 | 3.5 | 3.5 | 0.00 | 0.00 | 0.00 | 47 | 1018.3 |
| 20260505170949 | 80 | 130 | 3.5 | 5.2 | 0.00 | 0.00 | 0.00 | 46 | 1018.6 |
| 20260505170446 | 80 | 63 | 2.6 | 6.1 | 0.00 | 0.00 | 0.00 | 46 | 1018.6 |
| 20260505165942 | 80 | 243 | 1.7 | 2.6 | 0.00 | 0.00 | 0.00 | 48 | 1018.5 |
| 20260505165438 | 79 | 135 | 6.1 | 7.0 | 0.00 | 0.00 | 0.00 | 47 | 1018.7 |
| 20260505164933 | 78 | 97 | 3.5 | 6.1 | 0.00 | 0.00 | 0.00 | 52 | 1018.4 |
| 20260505164430 | 79 | 134 | 4.3 | 5.2 | 0.00 | 0.00 | 0.00 | 50 | 1018.5 |
| 20260505163928 | 78 | 140 | 1.7 | 3.5 | 0.00 | 0.00 | 0.00 | 52 | 1018.6 |
| 20260505163427 | 78 | 270 | 0.9 | 0.9 | 0.00 | 0.00 | 0.00 | 54 | 1018.7 |
| 20260505162926 | 77 | 122 | 3.5 | 5.2 | 0.00 | 0.00 | 0.00 | 52 | 1018.7 |
| 20260505162421 | 78 | 103 | 5.2 | 6.1 | 0.00 | 0.00 | 0.00 | 50 | 1018.7 |
| 20260505161918 | 78 | 203 | 0.0 | 0.0 | 0.00 | 0.00 | 0.00 | 51 | 1018.7 |
| 20260505161415 | 78 | 228 | 0.9 | 1.7 | 0.00 | 0.00 | 0.00 | 52 | 1018.8 |
| 20260505160912 | 78 | 249 | 2.6 | 5.2 | 0.00 | 0.00 | 0.00 | 52 | 1018.9 |
| 20260505160410 | 77 | 176 | 2.6 | 3.5 | 0.00 | 0.00 | 0.00 | 54 | 1018.9 |
| 20260505153349 | 75 | 330 | 3.5 | 5.2 | 0.00 | 0.00 | 0.00 | 58 | 1018.9 |
| 20260505152846 | 76 | 164 | 0.9 | 1.7 | 0.00 | 0.00 | 0.00 | 61 | 1019.2 |
| 20260505152344 | 75 | 215 | 0.9 | 0.9 | 0.00 | 0.00 | 0.00 | 60 | 1019.1 |
| 20260505151843 | 74 | 283 | 0.9 | 0.9 | 0.00 | 0.00 | 0.00 | 63 | 1019.1 |
| 20260505151340 | 73 | 183 | 3.5 | 5.2 | 0.00 | 0.00 | 0.00 | 63 | 1018.8 |
| 20260505150837 | 73 | 111 | 2.6 | 2.6 | 0.00 | 0.00 | 0.00 | 64 | 1018.9 |
| 20260505150334 | 73 | 194 | 4.3 | 5.2 | 0.00 | 0.00 | 0.00 | 64 | 1018.9 |
| 20260505140252 | 70 | 152 | 2.6 | 2.6 | 0.00 | 0.00 | 0.00 | 75 | 1018.8 |